Time;durP1;ratioP1;P1;durP2;ratioP2;P2;SDS_P1;SDS_P2;PMS_P1;PMS_P2;Temp;Humidity;BMP_temperature;BMP_pressure;BME280_temperature;BME280_humidity;BME280_pressure;Samples;Min_cycle;Max_cycle;Signal;HPM_P1;HPM_P2
2021/06/07 00:02:05;;;;;;;;;10.67;9.00;;;;;19.56;55.23;102024.22;6314708;22;45185;-91
2021/06/07 00:04:48;;;;;;;;;;;;;;;;;;;;;
2021/06/07 00:07:35;;;;;;;;;;;;;;;;;;;;;
2021/06/07 00:10:34;;;;;;;;;10.67;9.00;;;;;19.58;55.65;102047.34;6045363;23;68422;-93
2021/06/07 00:13:30;;;;;;;;;;;;;;;;;;;;;
2021/06/07 00:16:04;;;;;;;;;8.00;6.33;;;;;19.48;55.80;102031.34;6057950;23;75624;-94
2021/06/07 00:21:50;;;;;;;;;9.00;8.67;;;;;19.26;56.31;102001.09;6036641;23;45390;-94
2021/06/07 00:24:28;;;;;;;;;7.33;7.33;;;;;19.46;56.38;102041.13;6013813;23;45502;-93
2021/06/07 00:27:35;;;;;;;;;;;;;;;;;;;;;
2021/06/07 00:30:12;;;;;;;;;9.67;7.67;;;;;19.36;56.53;102021.56;6036797;23;73302;-93
2021/06/07 00:33:16;;;;;;;;;;;;;;;;;;;;;
2021/06/07 00:35:49;;;;;;;;;8.67;8.33;;;;;19.20;56.76;102004.66;6124047;23;64584;-92
2021/06/07 00:38:40;;;;;;;;;7.33;7.33;;;;;19.24;56.12;102008.22;6110333;23;46879;-92
2021/06/07 00:41:16;;;;;;;;;6.67;6.67;;;;;19.17;56.49;102004.63;6221341;22;44974;-94
2021/06/07 00:44:39;;;;;;;;;;;;;;;;;;;;;
2021/06/07 00:47:08;;;;;;;;;7.67;6.67;;;;;19.16;56.13;102003.75;6176934;22;64029;-92
2021/06/07 00:50:12;;;;;;;;;;;;;;;;;;;;;
2021/06/07 00:53:01;;;;;;;;;5.33;4.33;;;;;19.01;55.82;101998.38;6162886;22;72012;-92
2021/06/07 00:55:57;;;;;;;;;6.00;6.00;;;;;19.12;56.20;102020.59;6138087;23;44804;-92
2021/06/07 00:58:53;;;;;;;;;9.67;7.00;;;;;19.15;56.21;102033.06;6162660;22;45442;-93
2021/06/07 01:01:31;;;;;;;;;7.33;6.00;;;;;18.94;56.92;101997.47;6171276;23;45316;-92
2021/06/07 01:03:58;;;;;;;;;7.33;7.00;;;;;19.09;56.86;102023.25;6130250;23;45261;-93
2021/06/07 01:06:37;;;;;;;;;10.33;10.00;;;;;18.99;57.36;102014.38;6155914;23;45313;-92
2021/06/07 01:09:08;;;;;;;;;10.67;9.67;;;;;19.01;57.67;102025.91;6130296;23;45484;-92
2021/06/07 01:11:39;;;;;;;;;8.33;7.00;;;;;18.77;57.57;101997.41;6140922;22;47822;-95
2021/06/07 01:14:08;;;;;;;;;10.33;9.00;;;;;18.78;57.94;102002.75;6217579;22;45400;-93
2021/06/07 01:16:39;;;;;;;;;9.33;8.67;;;;;18.72;57.77;102000.03;6218959;22;45280;-94
2021/06/07 01:19:07;;;;;;;;;8.00;8.00;;;;;18.63;58.13;101993.81;6218088;22;45375;-92
2021/06/07 01:22:11;;;;;;;;;;;;;;;;;;;;;
2021/06/07 01:24:37;;;;;;;;;11.33;11.00;;;;;18.60;58.21;101995.56;6317172;22;71615;-93
2021/06/07 01:27:06;;;;;;;;;10.33;8.67;;;;;18.65;58.12;101996.50;6312428;22;45209;-93
2021/06/07 01:29:33;;;;;;;;;10.67;9.00;;;;;18.56;58.18;101996.44;6312912;22;45393;-95
2021/06/07 01:32:03;;;;;;;;;8.33;8.33;;;;;18.54;58.51;101993.78;6311488;22;47774;-94
2021/06/07 01:34:38;;;;;;;;;;;;;;;;;;;;;
2021/06/07 01:37:28;;;;;;;;;9.00;7.67;;;;;18.50;58.59;101992.00;6338838;22;67981;-94
2021/06/07 01:39:58;;;;;;;;;7.67;7.00;;;;;18.48;58.70;101992.00;6338944;22;45244;-95
2021/06/07 01:42:34;;;;;;;;;;;;;;;;;;;;;
2021/06/07 01:45:06;;;;;;;;;10.33;10.33;;;;;18.48;58.67;102004.41;6338186;22;72575;-93
2021/06/07 01:47:46;;;;;;;;;7.33;7.33;;;;;18.52;58.63;102004.44;6312188;22;45371;-92
2021/06/07 01:50:24;;;;;;;;;7.00;7.00;;;;;18.56;57.92;102013.31;6311180;22;45300;-93
2021/06/07 01:52:50;;;;;;;;;7.67;7.00;;;;;18.49;57.65;102006.16;6312045;22;47732;-94
2021/06/07 01:55:31;;;;;;;;;9.33;5.67;;;;;18.52;57.34;102019.50;6312154;22;45436;-94
2021/06/07 01:57:56;;;;;;;;;5.00;5.00;;;;;18.50;57.24;102018.63;6312825;22;45432;-92
2021/06/07 02:00:35;;;;;;;;;8.67;7.00;;;;;18.48;57.51;102015.06;6315673;22;45630;-92
2021/06/07 02:03:01;;;;;;;;;6.00;6.00;;;;;18.46;57.54;102011.50;6317792;22;47196;-93
2021/06/07 02:05:51;;;;;;;;;6.00;6.00;;;;;18.40;57.53;101999.91;6319360;22;45226;-92
2021/06/07 02:08:18;;;;;;;;;9.33;6.00;;;;;18.26;57.50;101985.66;6341420;22;45472;-93
2021/06/07 02:10:55;;;;;;;;;6.00;5.00;;;;;18.31;58.23;101997.22;6315354;22;45456;-92
2021/06/07 02:13:24;;;;;;;;;8.00;8.00;;;;;18.22;57.67;101981.19;6315374;22;47991;-92
2021/06/07 02:16:05;;;;;;;;;8.00;7.00;;;;;18.42;57.84;102015.94;6315897;22;45287;-92
2021/06/07 02:18:39;;;;;;;;;8.00;7.67;;;;;18.19;57.39;101986.53;6315601;22;45314;-94
2021/06/07 02:21:10;;;;;;;;;8.67;7.67;;;;;18.35;57.54;102025.66;6316346;22;45741;-92
2021/06/07 02:23:38;;;;;;;;;7.33;7.33;;;;;18.21;57.56;101996.28;6316822;22;46960;-92
2021/06/07 02:26:13;;;;;;;;;7.67;7.67;;;;;18.15;57.67;101996.19;6343288;22;45397;-92
2021/06/07 02:28:51;;;;;;;;;8.00;7.67;;;;;18.10;58.16;102001.50;6316832;22;45340;-92
2021/06/07 02:31:28;;;;;;;;;7.67;6.00;;;;;18.11;58.09;101997.06;6360059;22;45139;-92
2021/06/07 02:33:58;;;;;;;;;7.67;7.67;;;;;18.00;58.24;101991.69;6332138;22;47045;-92
2021/06/07 02:36:31;;;;;;;;;8.33;8.00;;;;;17.92;57.98;101973.91;6333653;22;45467;-92
2021/06/07 02:39:02;;;;;;;;;7.33;7.33;;;;;18.12;58.24;102023.72;6334064;22;45500;-92
2021/06/07 02:41:30;;;;;;;;;8.33;8.33;;;;;17.98;57.87;101999.66;6339745;22;45170;-91
2021/06/07 02:44:01;;;;;;;;;7.00;7.00;;;;;18.08;58.21;102019.25;6337971;22;47051;-92
2021/06/07 02:46:26;;;;;;;;;6.00;5.33;;;;;18.02;58.10;101997.91;6338614;22;45711;-91
2021/06/07 02:48:54;;;;;;;;;7.00;7.00;;;;;17.83;58.61;101980.03;6338239;22;44749;-91
2021/06/07 02:51:23;;;;;;;;;8.33;6.67;;;;;17.93;58.49;101991.66;6340607;22;44773;-93
2021/06/07 02:54:10;;;;;;;;;7.00;7.00;;;;;17.85;58.29;101987.16;6328365;22;47887;-92
2021/06/07 02:56:36;;;;;;;;;9.67;9.33;;;;;17.79;58.11;101977.34;6322556;22;45520;-90
2021/06/07 02:59:03;;;;;;;;;12.00;9.00;;;;;17.80;58.35;101989.78;6323127;22;45188;-90
2021/06/07 03:01:29;;;;;;;;;11.00;9.00;;;;;17.82;58.25;101998.66;6328732;22;44808;-92
2021/06/07 03:04:17;;;;;;;;;7.00;7.00;;;;;17.85;58.33;102009.34;6348864;22;47799;-90
2021/06/07 03:06:48;;;;;;;;;9.00;9.00;;;;;17.89;58.69;102026.19;6319513;22;45384;-91
2021/06/07 03:09:16;;;;;;;;;10.33;9.33;;;;;17.69;58.52;101995.91;6322833;22;45389;-91
2021/06/07 03:11:45;;;;;;;;;7.00;7.00;;;;;17.80;58.60;102017.28;6316085;22;45475;-90
2021/06/07 03:14:16;;;;;;;;;7.33;7.33;;;;;17.83;58.65;102025.25;6313273;22;47910;-91
2021/06/07 03:16:44;;;;;;;;;6.00;6.00;;;;;17.71;58.70;102001.22;6312655;22;45425;-91
2021/06/07 03:19:17;;;;;;;;;9.00;8.00;;;;;17.71;58.91;102009.22;6311428;22;45364;-91
2021/06/07 03:21:46;;;;;;;;;13.67;9.00;;;;;17.65;59.15;102001.19;6340859;22;45372;-92
2021/06/07 03:24:12;;;;;;;;;9.67;8.67;;;;;17.62;58.80;102002.03;6339263;22;46928;-92
2021/06/07 03:26:38;;;;;;;;;9.33;8.67;;;;;17.62;58.92;102003.84;6313150;22;45287;-92
2021/06/07 03:29:05;;;;;;;;;10.67;8.33;;;;;17.61;58.61;102007.34;6314940;22;45217;-92
2021/06/07 03:31:31;;;;;;;;;10.33;8.67;;;;;17.57;58.73;101998.47;6314662;22;44896;-91
2021/06/07 03:33:58;;;;;;;;;11.00;9.00;;;;;17.57;59.11;102007.34;6314229;22;47827;-91
2021/06/07 03:36:31;;;;;;;;;8.00;8.00;;;;;17.55;58.96;102005.53;6313276;22;45449;-93
2021/06/07 03:38:58;;;;;;;;;9.67;9.33;;;;;17.47;58.99;101990.41;6340672;22;45326;-92
2021/06/07 03:41:28;;;;;;;;;8.00;8.00;;;;;17.43;58.65;101990.38;6317380;22;45508;-91
2021/06/07 03:43:56;;;;;;;;;8.00;7.00;;;;;17.58;59.00;102022.41;6313347;22;47274;-92
2021/06/07 03:46:32;;;;;;;;;12.33;8.33;;;;;17.44;59.31;101998.38;6322098;22;45384;-91
2021/06/07 03:49:02;;;;;;;;;9.00;9.00;;;;;17.42;59.45;101989.50;6324499;22;45278;-92
2021/06/07 03:51:34;;;;;;;;;7.67;6.00;;;;;17.38;59.46;101993.00;6351398;22;45439;-91
2021/06/07 03:53:59;;;;;;;;;11.00;8.33;;;;;17.54;59.53;102014.38;6320074;22;47265;-93
2021/06/07 03:56:30;;;;;;;;;11.33;10.00;;;;;17.41;59.47;101998.31;6313175;22;45339;-94
2021/06/07 03:58:58;;;;;;;;;10.67;8.00;;;;;17.39;59.32;101993.84;6342860;22;45222;-94
2021/06/07 04:01:26;;;;;;;;;10.00;9.00;;;;;17.29;59.47;101984.91;6319711;22;45434;-94
2021/06/07 04:04:15;;;;;;;;;9.00;8.67;;;;;17.26;59.87;101977.81;6319265;22;47158;-92
2021/06/07 04:06:43;;;;;;;;;11.67;10.33;;;;;17.39;59.38;102020.44;6348210;22;45159;-94
2021/06/07 04:09:11;;;;;;;;;13.00;11.67;;;;;17.33;59.97;102010.66;6332575;22;44703;-93
2021/06/07 04:11:39;;;;;;;;;10.00;10.00;;;;;17.15;59.92;101979.47;6322154;22;45227;-93
2021/06/07 04:14:33;;;;;;;;;;;;;;;;;;;;;
2021/06/07 04:16:59;;;;;;;;;12.00;10.00;;;;;17.25;59.89;102002.59;6360267;22;72095;-93
2021/06/07 04:19:35;;;;;;;;;10.00;10.00;;;;;17.12;60.21;101990.94;6333971;22;44700;-93
2021/06/07 04:22:11;;;;;;;;;11.00;11.00;;;;;17.22;60.25;102006.13;6323455;22;45128;-93
2021/06/07 04:24:47;;;;;;;;;;;;;;;;;;;;;
2021/06/07 04:27:13;;;;;;;;;9.33;9.00;;;;;17.09;60.05;101985.59;6343953;22;71992;-93
2021/06/07 04:29:49;;;;;;;;;11.00;9.00;;;;;17.04;60.27;101989.97;6340974;22;45317;-92
2021/06/07 04:32:16;;;;;;;;;11.00;9.33;;;;;17.03;60.43;101991.72;6313007;22;45478;-94
2021/06/07 04:34:41;;;;;;;;;13.33;11.67;;;;;17.04;60.13;101987.31;6316732;22;47918;-94
2021/06/07 04:37:10;;;;;;;;;12.00;10.67;;;;;16.92;60.32;101967.69;6319588;22;45867;-94
2021/06/07 04:39:36;;;;;;;;;16.33;12.67;;;;;17.12;60.13;102010.44;6322256;22;45176;-92
2021/06/07 04:42:05;;;;;;;;;9.00;9.00;;;;;17.01;60.28;101997.03;6319546;22;45314;-93
2021/06/07 04:44:36;;;;;;;;;14.67;10.00;;;;;17.09;60.57;102007.72;6322284;22;48029;-92
2021/06/07 04:47:09;;;;;;;;;10.67;10.33;;;;;17.04;60.53;102003.25;6333435;22;45408;-92
2021/06/07 04:49:37;;;;;;;;;12.00;10.67;;;;;16.95;60.56;101982.78;6334131;22;44765;-92
2021/06/07 04:52:21;;;;;;;;;11.67;9.67;;;;;16.92;60.41;101975.66;6333206;22;45022;-92
2021/06/07 04:54:47;;;;;;;;;10.67;9.33;;;;;16.94;60.57;101979.22;6358166;22;47057;-91
2021/06/07 04:57:15;;;;;;;;;13.00;12.33;;;;;16.92;60.31;101973.00;6319670;22;45401;-92
2021/06/07 04:59:40;;;;;;;;;12.33;10.33;;;;;16.90;60.22;101974.75;6327663;22;45371;-92
2021/06/07 05:02:30;;;;;;;;;;;;;;;;;;;;;
2021/06/07 05:05:08;;;;;;;;;13.33;11.33;;;;;16.90;60.29;101980.97;6346081;22;75304;-93
2021/06/07 05:07:36;;;;;;;;;15.00;15.00;;;;;16.90;60.60;101983.63;6312773;22;45504;-92
2021/06/07 05:10:02;;;;;;;;;16.00;14.33;;;;;16.99;60.15;101990.81;6312552;22;45274;-93
2021/06/07 05:12:29;;;;;;;;;15.33;15.33;;;;;17.02;60.31;102001.47;6338051;22;45378;-91
2021/06/07 05:14:54;;;;;;;;;13.33;13.33;;;;;17.01;59.95;101999.69;6340131;22;46245;-91
2021/06/07 05:17:22;;;;;;;;;14.33;13.33;;;;;16.99;60.05;101996.13;6310755;22;45558;-93
2021/06/07 05:19:48;;;;;;;;;15.33;15.33;;;;;16.94;60.01;101983.66;6312482;22;45329;-91
2021/06/07 05:22:17;;;;;;;;;18.67;14.67;;;;;17.07;60.47;102005.94;6339027;22;45380;-94
2021/06/07 05:24:52;;;;;;;;;;;;;;;;;;;;;
2021/06/07 05:27:18;;;;;;;;;16.50;15.25;;;;;17.14;60.08;102010.47;6338302;22;72945;-92
2021/06/07 05:29:46;;;;;;;;;18.33;14.00;;;;;17.04;60.10;102000.59;6312619;22;45353;-94
2021/06/07 05:32:12;;;;;;;;;15.00;13.67;;;;;17.02;60.26;101998.81;6312211;22;45405;-93
2021/06/07 05:34:44;;;;;;;;;21.00;17.00;;;;;17.15;60.32;102012.25;6312304;22;47095;-94
2021/06/07 05:37:10;;;;;;;;;19.25;15.00;;;;;16.99;60.08;101990.81;6311663;22;45302;-93
2021/06/07 05:39:43;;;;;;;;;16.67;14.00;;;;;17.04;60.49;101982.00;6312296;22;45378;-92
2021/06/07 05:42:09;;;;;;;;;18.00;15.00;;;;;17.22;60.08;102018.50;6312666;22;45274;-91
2021/06/07 05:44:50;;;;;;;;;;;;;;;;;;;;;
2021/06/07 05:47:21;;;;;;;;;19.33;15.00;;;;;17.04;60.00;101992.63;6338268;22;73942;-92
2021/06/07 05:49:46;;;;;;;;;16.67;13.33;;;;;17.23;59.96;102031.84;6313280;22;45427;-92
2021/06/07 05:52:12;;;;;;;;;16.33;14.67;;;;;17.09;60.30;102001.53;6311643;22;45511;-91
2021/06/07 05:54:41;;;;;;;;;17.33;14.00;;;;;17.10;59.98;102001.56;6313903;22;46983;-92
2021/06/07 05:57:22;;;;;;;;;;;;;;;;;;;;;
2021/06/07 05:59:58;;;;;;;;;15.33;14.00;;;;;17.10;60.07;101992.69;6340028;22;67804;-94
2021/06/07 06:02:23;;;;;;;;;16.00;15.00;;;;;17.15;59.84;102001.63;6320166;22;45500;-90
2021/06/07 06:04:49;;;;;;;;;17.33;15.67;;;;;17.19;60.25;102007.88;6326252;22;46915;-91
2021/06/07 06:07:14;;;;;;;;;15.00;14.00;;;;;17.16;60.89;102002.50;6325517;22;45375;-90
2021/06/07 06:09:39;;;;;;;;;17.00;17.00;;;;;17.24;61.19;102009.69;6343367;22;45368;-90
2021/06/07 06:12:06;;;;;;;;;15.00;15.00;;;;;17.37;60.50;102023.09;6339961;22;45435;-90
2021/06/07 06:14:31;;;;;;;;;17.33;15.33;;;;;17.33;60.12;102023.94;6311708;22;47325;-93
2021/06/07 06:17:01;;;;;;;;;17.33;14.33;;;;;17.34;60.69;102015.97;6313155;22;45272;-93
2021/06/07 06:19:27;;;;;;;;;13.00;13.00;;;;;17.31;60.42;102013.31;6312336;22;45332;-93
2021/06/07 06:22:05;;;;;;;;;18.00;16.00;;;;;17.34;60.14;102012.44;6315333;22;45326;-94
2021/06/07 06:24:40;;;;;;;;;13.67;12.00;;;;;17.28;59.92;102005.28;6312729;22;47325;-92
2021/06/07 06:27:08;;;;;;;;;18.33;16.00;;;;;17.37;59.72;102017.78;6312863;22;45353;-94
2021/06/07 06:29:36;;;;;;;;;17.67;15.67;;;;;17.45;59.85;102026.72;6312395;22;45317;-93
2021/06/07 06:32:06;;;;;;;;;16.00;12.67;;;;;17.34;59.94;102007.13;6312446;22;45354;-93
2021/06/07 06:34:31;;;;;;;;;16.00;13.00;;;;;17.41;59.38;102022.25;6311849;22;47969;-93
2021/06/07 06:36:57;;;;;;;;;17.67;15.33;;;;;17.53;60.10;102039.19;6312050;22;45471;-92
2021/06/07 06:39:23;;;;;;;;;17.00;16.67;;;;;17.55;59.36;102037.44;6306103;22;45623;-92
2021/06/07 06:41:48;;;;;;;;;18.00;15.00;;;;;17.46;59.79;102020.53;6307204;22;45132;-93
2021/06/07 06:44:17;;;;;;;;;18.00;15.67;;;;;17.44;60.37;102011.66;6333059;22;47034;-92
2021/06/07 06:46:43;;;;;;;;;17.33;17.33;;;;;17.57;59.59;102030.38;6308881;22;45377;-92
2021/06/07 06:49:09;;;;;;;;;17.67;17.00;;;;;17.60;60.12;102022.41;6307939;22;45293;-93
2021/06/07 06:51:35;;;;;;;;;17.33;15.67;;;;;17.52;60.48;102008.16;6308483;22;45402;-93
2021/06/07 06:54:03;;;;;;;;;17.33;15.00;;;;;17.54;59.06;102003.75;6309377;22;47021;-93
2021/06/07 06:56:29;;;;;;;;;14.00;12.00;;;;;17.59;59.72;102013.56;6308277;22;45466;-93
2021/06/07 06:58:59;;;;;;;;;15.00;12.67;;;;;17.61;59.65;102005.59;6311998;22;45360;-93
2021/06/07 07:01:25;;;;;;;;;13.33;13.33;;;;;17.57;59.44;102003.78;6317814;22;45332;-92
2021/06/07 07:03:51;;;;;;;;;13.00;11.33;;;;;17.61;59.29;102010.00;6315182;22;47231;-92
2021/06/07 07:06:16;;;;;;;;;14.33;11.67;;;;;17.61;58.59;102004.69;6316021;22;45582;-92
2021/06/07 07:08:42;;;;;;;;;15.33;13.67;;;;;17.70;58.13;102007.44;6309663;22;45553;-93
2021/06/07 07:11:11;;;;;;;;;16.67;13.33;;;;;17.82;57.82;102033.25;6308474;22;45297;-94
2021/06/07 07:13:36;;;;;;;;;16.00;12.67;;;;;17.85;58.02;102035.03;6307400;22;46993;-93
2021/06/07 07:16:07;;;;;;;;;15.33;14.00;;;;;17.86;58.22;102036.81;6307502;22;45362;-94
2021/06/07 07:18:33;;;;;;;;;15.67;15.33;;;;;17.82;57.54;102023.50;6309927;22;45306;-92
2021/06/07 07:20:58;;;;;;;;;16.33;13.00;;;;;17.86;58.37;102028.81;6333958;22;45366;-93
2021/06/07 07:23:24;;;;;;;;;17.67;15.33;;;;;17.76;58.79;102004.84;6307224;22;48061;-92
2021/06/07 07:25:50;;;;;;;;;18.33;16.67;;;;;17.89;58.82;102026.19;6307416;22;45802;-92
2021/06/07 07:28:18;;;;;;;;;15.33;15.33;;;;;17.91;58.69;102024.44;6307170;22;45243;-93
2021/06/07 07:30:45;;;;;;;;;14.00;12.00;;;;;17.97;58.53;102028.91;6309410;22;45356;-93
2021/06/07 07:33:13;;;;;;;;;16.00;16.00;;;;;17.87;58.74;102002.25;6309410;22;45480;-92
2021/06/07 07:35:42;;;;;;;;;17.50;15.75;;;;;18.02;58.27;102016.53;6333667;22;45273;-92
2021/06/07 07:38:08;;;;;;;;;18.75;16.75;;;;;18.11;58.06;102032.56;6307955;22;45547;-92
2021/06/07 07:40:34;;;;;;;;;22.00;19.00;;;;;18.10;57.68;102020.16;6310191;22;45348;-93
2021/06/07 07:43:03;;;;;;;;;19.67;17.00;;;;;17.97;57.99;101996.97;6337230;22;47191;-93
2021/06/07 07:45:32;;;;;;;;;20.75;18.25;;;;;18.06;57.80;102005.03;6316437;22;45399;-93
2021/06/07 07:48:04;;;;;;;;;19.75;18.00;;;;;18.10;57.36;102000.63;6325772;22;45265;-92
2021/06/07 07:50:31;;;;;;;;;20.50;17.50;;;;;18.17;56.95;102006.00;6325050;22;45451;-94
2021/06/07 07:53:00;;;;;;;;;21.00;17.50;;;;;18.32;56.84;102028.28;6315284;22;47846;-92
2021/06/07 07:55:37;;;;;;;;;24.75;21.50;;;;;18.26;56.86;102001.63;6326938;22;46132;-93
2021/06/07 07:58:11;;;;;;;;;21.00;17.25;;;;;18.50;56.72;102031.94;6323663;22;45368;-92
2021/06/07 08:00:50;;;;;;;;;17.67;15.33;;;;;18.47;56.94;102010.59;6313283;22;45468;-92
2021/06/07 08:03:16;;;;;;;;;12.67;11.67;;;;;18.54;55.78;102009.75;6314590;22;47191;-92
2021/06/07 08:05:51;;;;;;;;;13.00;13.00;;;;;18.74;56.56;102027.59;6333915;22;45364;-93
2021/06/07 08:08:16;;;;;;;;;13.00;13.00;;;;;18.79;56.29;102017.84;6336161;22;45207;-93
2021/06/07 08:10:45;;;;;;;;;17.00;14.33;;;;;18.93;55.92;102015.22;6308988;22;45352;-92
2021/06/07 08:13:12;;;;;;;;;15.00;13.67;;;;;19.01;56.01;102007.25;6309033;22;46290;-92
2021/06/07 08:15:49;;;;;;;;;18.33;14.33;;;;;19.26;54.22;102015.34;6307040;22;45285;-94
2021/06/07 08:18:15;;;;;;;;;16.33;12.67;;;;;19.53;55.24;102021.56;6306736;22;45368;-93
2021/06/07 08:20:52;;;;;;;;;;;;;;;;;;;;;
2021/06/07 08:23:18;;;;;;;;;11.00;10.33;;;;;19.98;53.00;102010.00;6306460;22;75268;-93
2021/06/07 08:25:43;;;;;;;;;11.33;9.67;;;;;20.32;51.84;102021.50;6305204;22;45408;-93
2021/06/07 08:28:09;;;;;;;;;14.67;9.33;;;;;20.56;53.69;102003.63;6306693;22;45378;-93
2021/06/07 08:30:37;;;;;;;;;12.67;10.67;;;;;20.79;51.75;101995.47;6306768;22;45275;-92
2021/06/07 08:33:03;;;;;;;;;13.00;12.33;;;;;21.01;51.54;101982.03;6305791;22;47086;-92
2021/06/07 08:35:31;;;;;;;;;7.67;7.67;;;;;21.42;50.46;102020.97;6332663;22;45182;-91
2021/06/07 08:37:59;;;;;;;;;9.33;9.00;;;;;21.61;51.32;102003.88;6309865;22;45456;-93
2021/06/07 08:40:24;;;;;;;;;12.00;9.67;;;;;22.03;50.70;102013.31;6311611;22;45746;-92
2021/06/07 08:42:50;;;;;;;;;10.33;9.00;;;;;22.51;49.59;102000.28;6311001;22;47119;-93
2021/06/07 08:45:19;;;;;;;;;13.00;11.33;;;;;23.04;48.56;101987.97;6339717;22;45420;-92
2021/06/07 08:47:46;;;;;;;;;12.00;11.33;;;;;23.97;46.80;102015.06;6311230;22;45385;-91
2021/06/07 08:50:14;;;;;;;;;12.00;8.33;;;;;24.68;45.90;101994.91;6337688;22;45388;-92
2021/06/07 08:52:43;;;;;;;;;11.33;8.33;;;;;25.02;43.91;101991.47;6339240;22;45432;-91
2021/06/07 08:55:11;;;;;;;;;9.67;8.00;;;;;24.95;44.86;101989.81;6311043;22;45322;-91
2021/06/07 08:57:44;;;;;;;;;11.67;9.33;;;;;25.10;43.28;102020.88;6339554;22;45182;-91
2021/06/07 09:00:13;;;;;;;;;9.00;8.00;;;;;25.10;44.32;102007.41;6320443;22;45505;-91
2021/06/07 09:02:41;;;;;;;;;9.33;8.00;;;;;25.23;43.76;102010.69;6352673;22;45349;-92
2021/06/07 09:05:07;;;;;;;;;12.00;9.33;;;;;25.43;43.08;102012.00;6327891;22;45348;-91
2021/06/07 09:07:48;;;;;;;;;8.00;8.00;;;;;25.54;41.81;101999.16;6337595;22;44644;-91
2021/06/07 09:10:14;;;;;;;;;13.33;8.00;;;;;25.86;42.46;102014.53;6340014;22;44681;-91
2021/06/07 09:12:42;;;;;;;;;10.00;8.00;;;;;26.09;42.53;101996.84;6364063;22;45383;-94
2021/06/07 09:15:13;;;;;;;;;10.00;9.00;;;;;26.45;41.09;101994.03;6338671;22;45286;-92
2021/06/07 09:17:45;;;;;;;;;13.00;10.00;;;;;27.20;41.03;101998.94;6338127;22;45361;-93
2021/06/07 09:20:17;;;;;;;;;11.00;10.00;;;;;28.04;39.85;102003.31;6311517;22;45385;-94
2021/06/07 09:22:54;;;;;;;;;9.33;9.00;;;;;28.40;39.64;102009.25;6311048;22;47075;-92
2021/06/07 09:25:26;;;;;;;;;14.33;10.00;;;;;28.85;38.36;102002.06;6310675;22;45275;-91
2021/06/07 09:28:05;;;;;;;;;7.67;7.67;;;;;29.43;38.07;102017.81;6336817;22;45323;-91
2021/06/07 09:30:36;;;;;;;;;8.00;8.00;;;;;29.79;38.01;102025.34;6310903;22;45143;-92
2021/06/07 09:33:20;;;;;;;;;7.67;7.00;;;;;30.10;37.48;102027.63;6339567;22;45824;-91
2021/06/07 09:36:04;;;;;;;;;10.33;8.33;;;;;30.58;36.84;102028.16;6311302;22;45244;-92
2021/06/07 09:38:30;;;;;;;;;10.00;10.00;;;;;31.26;33.80;102033.97;6339449;22;45404;-91
2021/06/07 09:41:00;;;;;;;;;8.00;7.67;;;;;31.59;33.61;102012.44;6314318;22;45326;-91
2021/06/07 09:43:26;;;;;;;;;8.67;7.33;;;;;31.98;33.79;102013.97;6311120;22;47447;-93
2021/06/07 09:45:55;;;;;;;;;11.00;7.67;;;;;33.03;31.47;102029.16;6338802;22;45217;-92
2021/06/07 09:48:27;;;;;;;;;8.67;8.67;;;;;33.47;31.45;102032.06;6310360;22;45397;-91
2021/06/07 09:50:58;;;;;;;;;8.00;6.33;;;;;33.26;31.58;102029.69;6338950;22;45370;-91
2021/06/07 09:53:43;;;;;;;;;6.33;5.67;;;;;33.21;31.39;102037.25;6337904;22;46103;-91
2021/06/07 09:56:09;;;;;;;;;9.00;7.33;;;;;33.32;30.86;102020.25;6309934;22;45906;-92
2021/06/07 09:58:40;;;;;;;;;9.33;7.00;;;;;33.99;30.22;102024.44;6310291;22;45232;-93
2021/06/07 10:01:15;;;;;;;;;7.00;5.00;;;;;34.35;29.81;102027.69;6352182;22;45345;-90
2021/06/07 10:03:43;;;;;;;;;6.00;5.67;;;;;35.21;29.31;102026.69;6333959;22;47022;-90
2021/06/07 10:06:23;;;;;;;;;5.00;5.00;;;;;36.73;27.69;102024.28;6362765;22;44640;-90
2021/06/07 10:08:56;;;;;;;;;6.33;6.33;;;;;37.81;26.83;102023.47;6354931;22;45432;-91
2021/06/07 10:11:27;;;;;;;;;5.33;5.00;;;;;38.08;25.40;102030.50;6314752;22;45244;-93
2021/06/07 10:14:11;;;;;;;;;2.00;2.00;;;;;37.56;25.53;102036.41;6338840;22;45189;-91
2021/06/07 10:16:47;;;;;;;;;8.33;5.00;;;;;36.92;25.04;102028.41;6309935;22;45340;-92
2021/06/07 10:19:20;;;;;;;;;5.67;5.67;;;;;36.25;25.64;102018.59;6338496;22;45166;-92
2021/06/07 10:21:48;;;;;;;;;8.00;6.67;;;;;35.61;25.50;102014.88;6340245;22;45340;-92
2021/06/07 10:24:14;;;;;;;;;5.00;4.33;;;;;35.27;25.95;102019.91;6340432;22;46119;-92
2021/06/07 10:26:40;;;;;;;;;6.33;5.67;;;;;35.59;26.57;102005.91;6339670;22;45284;-91
2021/06/07 10:29:05;;;;;;;;;8.00;8.00;;;;;36.68;26.11;102016.41;6311734;22;45298;-91
2021/06/07 10:31:31;;;;;;;;;4.33;4.33;;;;;38.37;24.24;102015.44;6312019;22;45466;-91
2021/06/07 10:34:03;;;;;;;;;6.00;4.67;;;;;39.94;22.87;102019.66;6311218;22;48381;-91
2021/06/07 10:36:37;;;;;;;;;8.00;7.00;;;;;40.93;21.84;102017.19;6336307;22;45491;-92
2021/06/07 10:39:16;;;;;;;;;11.00;10.00;;;;;41.21;21.39;102022.88;6311176;22;45220;-92
2021/06/07 10:41:44;;;;;;;;;6.33;5.67;;;;;40.62;21.75;102007.16;6311612;22;45441;-92
2021/06/07 10:44:12;;;;;;;;;6.67;4.67;;;;;39.98;22.51;102023.00;6339673;22;45450;-91
2021/06/07 10:46:44;;;;;;;;;8.00;8.00;;;;;39.14;22.69;102010.84;6310770;22;45763;-91
2021/06/07 10:49:47;;;;;;;;;6.00;4.33;;;;;38.54;22.07;102014.03;6311274;22;45323;-90
2021/06/07 10:52:22;;;;;;;;;6.00;4.67;;;;;37.96;23.37;102008.56;6310756;22;45513;-92
2021/06/07 10:54:58;;;;;;;;;6.00;4.67;;;;;38.13;23.31;102011.81;6336918;22;47241;-91
2021/06/07 10:57:38;;;;;;;;;7.33;7.33;;;;;38.82;22.63;102000.75;6310975;22;46053;-93
2021/06/07 11:00:09;;;;;;;;;7.00;6.00;;;;;40.32;21.16;101999.84;6339708;22;45248;-91
2021/06/07 11:02:38;;;;;;;;;4.67;4.67;;;;;41.58;20.18;102009.34;6340447;22;45523;-93
2021/06/07 11:05:34;;;;;;;;;4.33;4.33;;;;;40.58;20.39;102015.81;6312610;22;46344;-90
2021/06/07 11:08:16;;;;;;;;;6.00;5.00;;;;;38.98;20.79;102015.94;6336334;22;45384;-92
2021/06/07 11:10:43;;;;;;;;;3.00;3.00;;;;;37.59;22.45;102008.75;6311495;22;45291;-91
2021/06/07 11:13:15;;;;;;;;;6.00;4.00;;;;;36.54;22.43;101998.28;6311578;22;45422;-91
2021/06/07 11:15:52;;;;;;;;;4.00;4.00;;;;;35.90;22.04;102000.13;6341889;22;45360;-92
2021/06/07 11:18:24;;;;;;;;;4.00;4.00;;;;;35.17;24.08;102001.44;6342045;22;45138;-92
2021/06/07 11:20:58;;;;;;;;;5.00;5.00;;;;;34.58;23.62;101988.94;6354666;22;45353;-90
2021/06/07 11:23:35;;;;;;;;;4.67;4.00;;;;;34.00;24.81;101990.72;6353641;22;45244;-91
2021/06/07 11:26:00;;;;;;;;;5.67;5.00;;;;;33.53;25.40;101974.47;6327375;22;46854;-93
2021/06/07 11:28:49;;;;;;;;;5.00;5.00;;;;;33.29;25.08;101991.38;6323805;22;45346;-93
2021/06/07 11:31:14;;;;;;;;;5.00;5.00;;;;;32.87;25.21;101994.66;6329083;22;45389;-91
2021/06/07 11:33:56;;;;;;;;;7.00;5.00;;;;;32.49;25.38;101986.84;6360985;22;44671;-92
2021/06/07 11:36:49;;;;;;;;;6.00;5.00;;;;;32.19;25.98;101992.06;6360774;22;46236;-89
2021/06/07 11:39:21;;;;;;;;;11.00;10.00;;;;;31.97;27.10;101979.63;6354982;22;45279;-92
2021/06/07 11:41:46;;;;;;;;;5.00;4.67;;;;;31.94;26.53;101979.75;6351490;22;45203;-90
2021/06/07 11:44:14;;;;;;;;;5.33;5.33;;;;;31.80;27.26;101976.91;6350193;22;45127;-91
2021/06/07 11:46:39;;;;;;;;;6.67;6.67;;;;;31.82;26.89;101988.59;6347173;22;45310;-91
2021/06/07 11:49:06;;;;;;;;;7.67;7.67;;;;;31.80;28.31;101977.81;6341056;22;45341;-91
2021/06/07 11:51:33;;;;;;;;;7.33;7.33;;;;;31.68;27.02;101973.91;6340413;22;45247;-91
2021/06/07 11:53:59;;;;;;;;;8.00;7.00;;;;;31.61;28.05;101980.63;6312181;22;45462;-91
2021/06/07 11:56:25;;;;;;;;;5.67;5.67;;;;;31.40;26.92;101975.31;6341256;22;46081;-91
2021/06/07 11:58:51;;;;;;;;;6.67;5.67;;;;;31.06;26.18;101957.09;6341206;22;45254;-91
2021/06/07 12:01:19;;;;;;;;;5.67;5.67;;;;;30.88;26.29;101968.91;6311443;22;45175;-92
2021/06/07 12:03:46;;;;;;;;;6.33;6.33;;;;;30.68;26.90;101951.72;6312178;22;45908;-91
2021/06/07 12:06:11;;;;;;;;;5.33;5.33;;;;;30.47;27.78;101949.09;6311379;22;47246;-92